sensor_id;sensor_type;location;lat;lon;timestamp;pressure;altitude;pressure_sealevel;temperature;humidity
78123;BME280;67376;44.802;10.332;2023-08-31T00:02:08;100369.63;;;26.25;43.37
78123;BME280;67376;44.802;10.332;2023-08-31T00:04:34;100387.66;;;26.26;43.17
78123;BME280;67376;44.802;10.332;2023-08-31T00:06:59;100375.91;;;26.25;42.96
78123;BME280;67376;44.802;10.332;2023-08-31T00:09:25;100376.72;;;26.26;42.97
78123;BME280;67376;44.802;10.332;2023-08-31T00:11:50;100373.97;;;26.26;43.23
78123;BME280;67376;44.802;10.332;2023-08-31T00:14:15;100390.41;;;26.26;43.05
78123;BME280;67376;44.802;10.332;2023-08-31T00:16:41;100381.38;;;26.25;43.04
78123;BME280;67376;44.802;10.332;2023-08-31T00:19:06;100391.22;;;26.26;43.01
78123;BME280;67376;44.802;10.332;2023-08-31T00:21:31;100381.38;;;26.25;43.26
78123;BME280;67376;44.802;10.332;2023-08-31T00:23:56;100385.22;;;26.24;42.96
78123;BME280;67376;44.802;10.332;2023-08-31T00:26:22;100383.28;;;26.25;43.02
78123;BME280;67376;44.802;10.332;2023-08-31T00:28:47;100386.03;;;26.25;43.05
78123;BME280;67376;44.802;10.332;2023-08-31T00:31:12;100390.69;;;26.24;43.30
78123;BME280;67376;44.802;10.332;2023-08-31T00:33:38;100384.41;;;26.24;43.33
78123;BME280;67376;44.802;10.332;2023-08-31T00:36:03;100387.97;;;26.24;43.01
78123;BME280;67376;44.802;10.332;2023-08-31T00:38:31;100387.13;;;26.24;43.17
78123;BME280;67376;44.802;10.332;2023-08-31T00:40:57;100389.06;;;26.23;43.07
78123;BME280;67376;44.802;10.332;2023-08-31T00:43:22;100385.50;;;26.23;43.34
78123;BME280;67376;44.802;10.332;2023-08-31T00:45:51;100388.25;;;26.23;43.00
78123;BME280;67376;44.802;10.332;2023-08-31T00:48:19;100389.06;;;26.23;43.73
78123;BME280;67376;44.802;10.332;2023-08-31T00:50:47;100385.22;;;26.24;43.12
78123;BME280;67376;44.802;10.332;2023-08-31T00:53:13;100389.88;;;26.24;43.27
78123;BME280;67376;44.802;10.332;2023-08-31T00:55:39;100395.34;;;26.24;43.00
78123;BME280;67376;44.802;10.332;2023-08-31T00:58:05;100390.97;;;26.23;43.31
78123;BME280;67376;44.802;10.332;2023-08-31T01:00:44;100387.13;;;26.24;43.14
78123;BME280;67376;44.802;10.332;2023-08-31T01:03:53;100397.25;;;26.23;42.92
78123;BME280;67376;44.802;10.332;2023-08-31T01:06:07;100396.44;;;26.23;43.28
78123;BME280;67376;44.802;10.332;2023-08-31T01:14:12;100406.28;;;26.24;43.22
78123;BME280;67376;44.802;10.332;2023-08-31T01:16:41;100408.22;;;26.23;43.31
78123;BME280;67376;44.802;10.332;2023-08-31T01:19:16;100416.41;;;26.23;43.23
78123;BME280;67376;44.802;10.332;2023-08-31T01:21:46;100415.88;;;26.21;43.30
78123;BME280;67376;44.802;10.332;2023-08-31T01:24:12;100414.78;;;26.22;43.04
78123;BME280;67376;44.802;10.332;2023-08-31T01:26:38;100417.53;;;26.22;42.94
78123;BME280;67376;44.802;10.332;2023-08-31T01:29:04;100413.16;;;26.21;43.61
78123;BME280;67376;44.802;10.332;2023-08-31T01:31:30;100427.66;;;26.22;43.01
78123;BME280;67376;44.802;10.332;2023-08-31T01:33:55;100421.34;;;26.21;42.83
78123;BME280;67376;44.802;10.332;2023-08-31T01:36:27;100422.19;;;26.22;42.97
78123;BME280;67376;44.802;10.332;2023-08-31T01:39:03;100425.72;;;26.22;43.26
78123;BME280;67376;44.802;10.332;2023-08-31T01:41:32;100427.66;;;26.22;42.83
78123;BME280;67376;44.802;10.332;2023-08-31T01:43:59;100438.59;;;26.22;43.02
78123;BME280;67376;44.802;10.332;2023-08-31T01:46:25;100440.81;;;26.20;43.15
78123;BME280;67376;44.802;10.332;2023-08-31T01:48:51;100446.81;;;26.22;43.21
78123;BME280;67376;44.802;10.332;2023-08-31T01:51:16;100450.66;;;26.21;43.37
78123;BME280;67376;44.802;10.332;2023-08-31T01:53:42;100451.47;;;26.21;43.35
78123;BME280;67376;44.802;10.332;2023-08-31T01:56:07;100455.03;;;26.22;43.31
78123;BME280;67376;44.802;10.332;2023-08-31T01:58:33;100453.38;;;26.21;43.22
78123;BME280;67376;44.802;10.332;2023-08-31T02:00:58;100453.38;;;26.21;43.04
78123;BME280;67376;44.802;10.332;2023-08-31T02:03:24;100458.03;;;26.20;43.41
78123;BME280;67376;44.802;10.332;2023-08-31T02:05:50;100456.41;;;26.19;42.92
78123;BME280;67376;44.802;10.332;2023-08-31T02:08:15;100467.34;;;26.19;43.54
78123;BME280;67376;44.802;10.332;2023-08-31T02:10:42;100457.22;;;26.20;43.26
78123;BME280;67376;44.802;10.332;2023-08-31T02:13:08;100474.47;;;26.20;43.25
78123;BME280;67376;44.802;10.332;2023-08-31T02:15:34;100471.72;;;26.20;43.34
78123;BME280;67376;44.802;10.332;2023-08-31T02:18:02;100482.94;;;26.19;42.94
78123;BME280;67376;44.802;10.332;2023-08-31T02:20:27;100483.78;;;26.19;42.84
78123;BME280;67376;44.802;10.332;2023-08-31T02:22:52;100485.69;;;26.19;43.56
78123;BME280;67376;44.802;10.332;2023-08-31T02:25:18;100491.16;;;26.19;43.06
78123;BME280;67376;44.802;10.332;2023-08-31T02:27:43;100491.16;;;26.19;42.89
78123;BME280;67376;44.802;10.332;2023-08-31T02:30:08;100487.59;;;26.18;43.01
78123;BME280;67376;44.802;10.332;2023-08-31T02:32:34;100492.25;;;26.18;43.47
78123;BME280;67376;44.802;10.332;2023-08-31T02:34:59;100496.91;;;26.17;42.91
78123;BME280;67376;44.802;10.332;2023-08-31T02:37:24;100500.47;;;26.18;43.04
78123;BME280;67376;44.802;10.332;2023-08-31T02:39:49;100494.72;;;26.19;43.08
78123;BME280;67376;44.802;10.332;2023-08-31T02:42:15;100497.72;;;26.18;43.42
78123;BME280;67376;44.802;10.332;2023-08-31T02:44:40;100492.25;;;26.18;43.44
78123;BME280;67376;44.802;10.332;2023-08-31T02:47:05;100488.72;;;26.17;43.07
78123;BME280;67376;44.802;10.332;2023-08-31T02:49:30;100495.81;;;26.18;43.15
78123;BME280;67376;44.802;10.332;2023-08-31T02:51:56;100501.28;;;26.18;43.25
78123;BME280;67376;44.802;10.332;2023-08-31T02:54:21;100495.00;;;26.18;43.11
78123;BME280;67376;44.802;10.332;2023-08-31T02:56:46;100492.25;;;26.18;42.98
78123;BME280;67376;44.802;10.332;2023-08-31T02:59:11;100493.34;;;26.17;42.98
78123;BME280;67376;44.802;10.332;2023-08-31T03:01:37;100496.09;;;26.17;42.87
78123;BME280;67376;44.802;10.332;2023-08-31T03:04:04;100498.00;;;26.16;42.74
78123;BME280;67376;44.802;10.332;2023-08-31T03:06:31;100505.94;;;26.18;43.28
78123;BME280;67376;44.802;10.332;2023-08-31T03:08:57;100498.84;;;26.17;42.87
78123;BME280;67376;44.802;10.332;2023-08-31T03:11:22;100501.56;;;26.17;43.18
78123;BME280;67376;44.802;10.332;2023-08-31T03:13:47;100500.75;;;26.16;42.82
78123;BME280;67376;44.802;10.332;2023-08-31T03:16:12;100497.19;;;26.16;43.00
78123;BME280;67376;44.802;10.332;2023-08-31T03:18:38;100500.75;;;26.16;43.40
78123;BME280;67376;44.802;10.332;2023-08-31T03:21:03;100509.78;;;26.17;42.88
78123;BME280;67376;44.802;10.332;2023-08-31T03:23:29;100507.03;;;26.17;42.80
78123;BME280;67376;44.802;10.332;2023-08-31T03:25:54;100504.31;;;26.17;43.08
78123;BME280;67376;44.802;10.332;2023-08-31T03:28:20;100508.97;;;26.16;43.09
78123;BME280;67376;44.802;10.332;2023-08-31T03:30:45;100507.84;;;26.17;42.70
78123;BME280;67376;44.802;10.332;2023-08-31T03:33:11;100509.78;;;26.17;43.02
78123;BME280;67376;44.802;10.332;2023-08-31T03:35:37;100515.25;;;26.17;42.77
78123;BME280;67376;44.802;10.332;2023-08-31T03:38:02;100511.69;;;26.16;42.85
78123;BME280;67376;44.802;10.332;2023-08-31T03:40:28;100517.44;;;26.15;42.78
78123;BME280;67376;44.802;10.332;2023-08-31T03:42:53;100510.88;;;26.16;42.60
78123;BME280;67376;44.802;10.332;2023-08-31T03:45:19;100521.81;;;26.16;42.31
78123;BME280;67376;44.802;10.332;2023-08-31T03:47:44;100516.34;;;26.16;43.10
78123;BME280;67376;44.802;10.332;2023-08-31T03:50:09;100525.66;;;26.15;43.32
78123;BME280;67376;44.802;10.332;2023-08-31T03:52:35;100530.84;;;26.16;42.63
78123;BME280;67376;44.802;10.332;2023-08-31T03:55:00;100527.28;;;26.16;42.92
78123;BME280;67376;44.802;10.332;2023-08-31T03:57:25;100523.75;;;26.15;42.82
78123;BME280;67376;44.802;10.332;2023-08-31T03:59:50;100527.28;;;26.16;42.67
78123;BME280;67376;44.802;10.332;2023-08-31T04:02:16;100528.41;;;26.15;42.77
78123;BME280;67376;44.802;10.332;2023-08-31T04:04:41;100528.41;;;26.15;43.04
78123;BME280;67376;44.802;10.332;2023-08-31T04:07:06;100534.69;;;26.15;42.94
78123;BME280;67376;44.802;10.332;2023-08-31T04:09:32;100533.59;;;26.16;42.49
78123;BME280;67376;44.802;10.332;2023-08-31T04:11:57;100537.44;;;26.15;42.87
78123;BME280;67376;44.802;10.332;2023-08-31T04:14:22;100537.44;;;26.15;42.55
78123;BME280;67376;44.802;10.332;2023-08-31T04:16:47;100547.56;;;26.15;43.07
78123;BME280;67376;44.802;10.332;2023-08-31T04:19:15;100547.56;;;26.15;42.73
78123;BME280;67376;44.802;10.332;2023-08-31T04:21:40;100544.28;;;26.13;42.38
78123;BME280;67376;44.802;10.332;2023-08-31T04:24:05;100557.69;;;26.14;42.79
78123;BME280;67376;44.802;10.332;2023-08-31T04:26:31;100564.78;;;26.15;42.79
78123;BME280;67376;44.802;10.332;2023-08-31T04:28:56;100566.72;;;26.15;42.84
78123;BME280;67376;44.802;10.332;2023-08-31T04:31:21;100563.16;;;26.14;43.08
78123;BME280;67376;44.802;10.332;2023-08-31T04:33:47;100565.88;;;26.14;43.01
78123;BME280;67376;44.802;10.332;2023-08-31T04:36:13;100571.38;;;26.14;43.08
78123;BME280;67376;44.802;10.332;2023-08-31T04:38:38;100566.16;;;26.13;43.12
78123;BME280;67376;44.802;10.332;2023-08-31T04:41:03;100574.09;;;26.14;43.16
78123;BME280;67376;44.802;10.332;2023-08-31T04:43:29;100581.50;;;26.14;42.92
78123;BME280;67376;44.802;10.332;2023-08-31T04:45:54;100581.50;;;26.14;42.24
78123;BME280;67376;44.802;10.332;2023-08-31T04:48:20;100587.78;;;26.14;42.79
78123;BME280;67376;44.802;10.332;2023-08-31T04:50:46;100592.44;;;26.14;42.38
78123;BME280;67376;44.802;10.332;2023-08-31T04:53:11;100586.97;;;26.14;42.83
78123;BME280;67376;44.802;10.332;2023-08-31T04:55:36;100593.25;;;26.14;42.84
78123;BME280;67376;44.802;10.332;2023-08-31T04:58:02;100592.44;;;26.14;42.98
78123;BME280;67376;44.802;10.332;2023-08-31T05:00:28;100589.69;;;26.14;42.03
78123;BME280;67376;44.802;10.332;2023-08-31T05:02:53;100595.44;;;26.12;42.12
78123;BME280;67376;44.802;10.332;2023-08-31T05:05:18;100600.09;;;26.12;42.43
78123;BME280;67376;44.802;10.332;2023-08-31T05:07:43;100597.38;;;26.12;42.02
78123;BME280;67376;44.802;10.332;2023-08-31T05:10:09;100602.03;;;26.11;42.38
78123;BME280;67376;44.802;10.332;2023-08-31T05:12:34;100612.97;;;26.11;42.44
78123;BME280;67376;44.802;10.332;2023-08-31T05:14:59;100605.84;;;26.10;41.83
78123;BME280;67376;44.802;10.332;2023-08-31T05:17:25;100618.72;;;26.10;41.98
78123;BME280;67376;44.802;10.332;2023-08-31T05:19:50;100623.38;;;26.09;42.65
78123;BME280;67376;44.802;10.332;2023-08-31T05:22:15;100615.16;;;26.09;41.93
78123;BME280;67376;44.802;10.332;2023-08-31T05:24:40;100617.06;;;26.09;42.28
78123;BME280;67376;44.802;10.332;2023-08-31T05:27:06;100622.56;;;26.09;42.15
78123;BME280;67376;44.802;10.332;2023-08-31T05:29:31;100621.44;;;26.10;42.33
78123;BME280;67376;44.802;10.332;2023-08-31T05:31:56;100623.66;;;26.08;42.19
78123;BME280;67376;44.802;10.332;2023-08-31T05:34:21;100622.81;;;26.07;41.87
78123;BME280;67376;44.802;10.332;2023-08-31T05:36:48;100626.66;;;26.06;41.61
78123;BME280;67376;44.802;10.332;2023-08-31T05:39:13;100625.28;;;26.04;41.96
78123;BME280;67376;44.802;10.332;2023-08-31T05:41:40;100634.59;;;26.03;41.80
78123;BME280;67376;44.802;10.332;2023-08-31T05:44:06;100637.34;;;26.03;41.97
78123;BME280;67376;44.802;10.332;2023-08-31T05:46:31;100639.25;;;26.02;41.82
78123;BME280;67376;44.802;10.332;2023-08-31T05:48:56;100646.63;;;26.02;42.03
78123;BME280;67376;44.802;10.332;2023-08-31T05:51:22;100647.47;;;26.02;42.35
78123;BME280;67376;44.802;10.332;2023-08-31T05:53:47;100653.75;;;26.03;42.37
78123;BME280;67376;44.802;10.332;2023-08-31T05:56:12;100651.00;;;26.03;41.92
78123;BME280;67376;44.802;10.332;2023-08-31T05:58:37;100652.94;;;26.02;42.65
78123;BME280;67376;44.802;10.332;2023-08-31T06:01:03;100660.88;;;26.04;42.44
78123;BME280;67376;44.802;10.332;2023-08-31T06:03:29;100663.31;;;26.05;42.86
78123;BME280;67376;44.802;10.332;2023-08-31T06:05:57;100663.06;;;26.07;43.27
78123;BME280;67376;44.802;10.332;2023-08-31T06:08:23;100670.44;;;26.06;42.59
78123;BME280;67376;44.802;10.332;2023-08-31T06:10:49;100675.09;;;26.06;42.59
78123;BME280;67376;44.802;10.332;2023-08-31T06:13:14;100676.47;;;26.03;42.44
78123;BME280;67376;44.802;10.332;2023-08-31T06:15:40;100682.22;;;26.02;42.11
78123;BME280;67376;44.802;10.332;2023-08-31T06:18:05;100683.84;;;26.03;42.24
78123;BME280;67376;44.802;10.332;2023-08-31T06:20:31;100689.31;;;26.03;41.99
78123;BME280;67376;44.802;10.332;2023-08-31T06:22:56;100696.97;;;26.00;42.17
78123;BME280;67376;44.802;10.332;2023-08-31T06:25:21;100692.63;;;25.99;42.32
78123;BME280;67376;44.802;10.332;2023-08-31T06:27:47;100702.75;;;25.99;42.61
78123;BME280;67376;44.802;10.332;2023-08-31T06:30:13;100697.28;;;25.99;42.27
78123;BME280;67376;44.802;10.332;2023-08-31T06:32:42;100696.16;;;26.00;42.45
78123;BME280;67376;44.802;10.332;2023-08-31T06:35:07;100699.19;;;25.98;42.88
78123;BME280;67376;44.802;10.332;2023-08-31T06:37:32;100705.50;;;25.99;42.42
78123;BME280;67376;44.802;10.332;2023-08-31T06:39:58;100706.31;;;25.99;42.26
78123;BME280;67376;44.802;10.332;2023-08-31T06:42:23;100712.31;;;26.02;42.24
78123;BME280;67376;44.802;10.332;2023-08-31T06:44:48;100714.22;;;26.01;42.28
78123;BME280;67376;44.802;10.332;2023-08-31T06:47:13;100721.09;;;25.98;42.40
78123;BME280;67376;44.802;10.332;2023-08-31T06:49:41;100723.28;;;25.96;42.57
78123;BME280;67376;44.802;10.332;2023-08-31T06:52:06;100719.72;;;25.96;42.20
78123;BME280;67376;44.802;10.332;2023-08-31T06:54:33;100728.75;;;25.96;42.97
78123;BME280;67376;44.802;10.332;2023-08-31T06:56:58;100730.13;;;25.94;42.63
78123;BME280;67376;44.802;10.332;2023-08-31T06:59:23;100729.84;;;25.95;43.18
78123;BME280;67376;44.802;10.332;2023-08-31T07:01:49;100731.75;;;25.95;42.86
78123;BME280;67376;44.802;10.332;2023-08-31T07:04:15;100743.78;;;25.94;42.58
78123;BME280;67376;44.802;10.332;2023-08-31T07:06:40;100735.88;;;25.92;42.60
78123;BME280;67376;44.802;10.332;2023-08-31T07:09:05;100745.72;;;25.93;43.51
78123;BME280;67376;44.802;10.332;2023-08-31T07:11:31;100746.81;;;25.92;42.82
78123;BME280;67376;44.802;10.332;2023-08-31T07:13:57;100742.44;;;25.91;42.87
78123;BME280;67376;44.802;10.332;2023-08-31T07:16:22;100750.09;;;25.89;43.25
78123;BME280;67376;44.802;10.332;2023-08-31T07:18:48;100759.13;;;25.90;42.98
78123;BME280;67376;44.802;10.332;2023-08-31T07:21:13;100755.00;;;25.87;42.89
78123;BME280;67376;44.802;10.332;2023-08-31T07:23:38;100754.19;;;25.87;42.49
78123;BME280;67376;44.802;10.332;2023-08-31T07:26:03;100758.56;;;25.88;43.28
78123;BME280;67376;44.802;10.332;2023-08-31T07:28:29;100759.09;;;25.85;43.35
78123;BME280;67376;44.802;10.332;2023-08-31T07:31:04;100767.31;;;25.85;42.83
78123;BME280;67376;44.802;10.332;2023-08-31T07:33:33;100775.78;;;25.83;43.14
78123;BME280;67376;44.802;10.332;2023-08-31T07:35:59;100775.78;;;25.83;42.48
78123;BME280;67376;44.802;10.332;2023-08-31T07:38:25;100782.34;;;25.82;42.50
78123;BME280;67376;44.802;10.332;2023-08-31T07:40:51;100785.09;;;25.82;43.27
78123;BME280;67376;44.802;10.332;2023-08-31T07:43:16;100790.56;;;25.82;42.63
78123;BME280;67376;44.802;10.332;2023-08-31T07:45:42;100780.72;;;25.81;43.09
78123;BME280;67376;44.802;10.332;2023-08-31T07:48:07;100782.34;;;25.82;42.88
78123;BME280;67376;44.802;10.332;2023-08-31T07:50:32;100785.09;;;25.82;43.01
78123;BME280;67376;44.802;10.332;2023-08-31T07:52:59;100790.56;;;25.82;42.82
78123;BME280;67376;44.802;10.332;2023-08-31T07:55:24;100793.28;;;25.82;42.67
78123;BME280;67376;44.802;10.332;2023-08-31T07:57:49;100799.59;;;25.83;42.19
78123;BME280;67376;44.802;10.332;2023-08-31T08:00:15;100811.88;;;25.80;42.34
78123;BME280;67376;44.802;10.332;2023-08-31T08:02:40;100811.06;;;25.80;42.34
78123;BME280;67376;44.802;10.332;2023-08-31T08:05:05;100812.97;;;25.79;42.41
78123;BME280;67376;44.802;10.332;2023-08-31T08:07:31;100808.34;;;25.80;42.23
78123;BME280;67376;44.802;10.332;2023-08-31T08:09:56;100812.16;;;25.79;42.21
78123;BME280;67376;44.802;10.332;2023-08-31T08:12:21;100809.44;;;25.79;42.06
78123;BME280;67376;44.802;10.332;2023-08-31T08:14:47;100813.53;;;25.81;42.76
78123;BME280;67376;44.802;10.332;2023-08-31T08:17:12;100809.72;;;25.82;42.17
78123;BME280;67376;44.802;10.332;2023-08-31T08:19:37;100809.72;;;25.82;41.94
78123;BME280;67376;44.802;10.332;2023-08-31T08:22:02;100817.66;;;25.84;42.80
78123;BME280;67376;44.802;10.332;2023-08-31T08:24:28;100816.81;;;25.83;42.38
78123;BME280;67376;44.802;10.332;2023-08-31T08:26:54;100821.19;;;25.84;42.08
78123;BME280;67376;44.802;10.332;2023-08-31T08:29:19;100820.38;;;25.84;42.61
78123;BME280;67376;44.802;10.332;2023-08-31T08:31:44;100831.88;;;25.86;41.99
78123;BME280;67376;44.802;10.332;2023-08-31T08:34:09;100826.41;;;25.86;42.47
78123;BME280;67376;44.802;10.332;2023-08-31T08:36:34;100836.25;;;25.87;42.17
78123;BME280;67376;44.802;10.332;2023-08-31T08:39:00;100832.16;;;25.84;42.20
78123;BME280;67376;44.802;10.332;2023-08-31T08:41:25;100832.97;;;25.85;42.13
78123;BME280;67376;44.802;10.332;2023-08-31T08:43:53;100830.22;;;25.85;42.86
78123;BME280;67376;44.802;10.332;2023-08-31T08:46:19;100827.50;;;25.85;42.83
78123;BME280;67376;44.802;10.332;2023-08-31T08:48:45;100836.53;;;25.85;42.77
78123;BME280;67376;44.802;10.332;2023-08-31T08:51:12;100830.22;;;25.85;42.38
78123;BME280;67376;44.802;10.332;2023-08-31T08:53:38;100839.00;;;25.87;42.22
78123;BME280;67376;44.802;10.332;2023-08-31T08:56:06;100835.97;;;25.88;42.51
78123;BME280;67376;44.802;10.332;2023-08-31T08:58:31;100837.91;;;25.88;42.58
78123;BME280;67376;44.802;10.332;2023-08-31T09:00:56;100832.44;;;25.88;42.29
78123;BME280;67376;44.802;10.332;2023-08-31T09:03:22;100833.78;;;25.90;42.34
78123;BME280;67376;44.802;10.332;2023-08-31T09:05:48;100832.72;;;25.91;42.95
78123;BME280;67376;44.802;10.332;2023-08-31T09:08:13;100834.88;;;25.89;42.38
78123;BME280;67376;44.802;10.332;2023-08-31T09:10:41;100841.47;;;25.93;42.42
78123;BME280;67376;44.802;10.332;2023-08-31T09:13:07;100842.28;;;25.94;42.63
78123;BME280;67376;44.802;10.332;2023-08-31T09:15:48;100839.56;;;25.94;42.60
78123;BME280;67376;44.802;10.332;2023-08-31T09:18:14;100833.00;;;25.95;42.46
78123;BME280;67376;44.802;10.332;2023-08-31T09:20:44;100841.19;;;25.95;42.34
78123;BME280;67376;44.802;10.332;2023-08-31T09:23:09;100842.03;;;25.95;42.26
78123;BME280;67376;44.802;10.332;2023-08-31T09:25:40;100838.47;;;25.95;42.93
78123;BME280;67376;44.802;10.332;2023-08-31T09:28:06;100840.09;;;25.96;42.46
78123;BME280;67376;44.802;10.332;2023-08-31T09:30:35;100831.63;;;25.97;42.75
78123;BME280;67376;44.802;10.332;2023-08-31T09:33:00;100843.13;;;25.99;42.95
78123;BME280;67376;44.802;10.332;2023-08-31T09:35:26;100836.53;;;26.00;43.15
78123;BME280;67376;44.802;10.332;2023-08-31T09:37:55;100841.72;;;26.02;42.83
78123;BME280;67376;44.802;10.332;2023-08-31T09:40:21;100846.94;;;26.04;42.41
78123;BME280;67376;44.802;10.332;2023-08-31T09:42:49;100843.38;;;26.03;43.04
78123;BME280;67376;44.802;10.332;2023-08-31T09:45:16;100846.94;;;26.04;43.15
78123;BME280;67376;44.802;10.332;2023-08-31T09:47:41;100833.25;;;26.04;43.16
78123;BME280;67376;44.802;10.332;2023-08-31T09:50:07;100836.81;;;26.04;42.75
78123;BME280;67376;44.802;10.332;2023-08-31T09:52:33;100844.75;;;26.06;42.55
78123;BME280;67376;44.802;10.332;2023-08-31T09:54:59;100850.22;;;26.06;42.73
78123;BME280;67376;44.802;10.332;2023-08-31T09:57:26;100851.84;;;26.07;42.67
78123;BME280;67376;44.802;10.332;2023-08-31T09:59:52;100846.38;;;26.07;42.70
78123;BME280;67376;44.802;10.332;2023-08-31T10:02:18;100848.03;;;26.08;42.82
78123;BME280;67376;44.802;10.332;2023-08-31T10:04:43;100845.28;;;26.08;42.78
78123;BME280;67376;44.802;10.332;2023-08-31T10:07:09;100845.03;;;26.09;43.05
78123;BME280;67376;44.802;10.332;2023-08-31T10:09:36;100853.22;;;26.09;43.02
78123;BME280;67376;44.802;10.332;2023-08-31T10:12:03;100846.66;;;26.10;42.60
78123;BME280;67376;44.802;10.332;2023-08-31T10:14:29;100845.03;;;26.09;42.78
78123;BME280;67376;44.802;10.332;2023-08-31T10:16:54;100843.09;;;26.10;42.76
78123;BME280;67376;44.802;10.332;2023-08-31T10:19:21;100840.38;;;26.10;42.69
78123;BME280;67376;44.802;10.332;2023-08-31T10:21:46;100836.81;;;26.09;42.61
78123;BME280;67376;44.802;10.332;2023-08-31T10:24:11;100834.06;;;26.09;42.69
78123;BME280;67376;44.802;10.332;2023-08-31T10:26:36;100832.16;;;26.10;42.82
78123;BME280;67376;44.802;10.332;2023-08-31T10:29:02;100843.94;;;26.10;42.77
78123;BME280;67376;44.802;10.332;2023-08-31T10:31:30;100838.47;;;26.10;42.68
78123;BME280;67376;44.802;10.332;2023-08-31T10:36:20;100840.09;;;26.11;42.66
78123;BME280;67376;44.802;10.332;2023-08-31T10:38:46;100828.34;;;26.11;42.30
78123;BME280;67376;44.802;10.332;2023-08-31T10:43:44;100828.34;;;26.11;42.51
78123;BME280;67376;44.802;10.332;2023-08-31T10:51:25;100831.06;;;26.11;42.61
78123;BME280;67376;44.802;10.332;2023-08-31T10:53:51;100828.34;;;26.11;42.56
78123;BME280;67376;44.802;10.332;2023-08-31T10:56:22;100831.88;;;26.11;42.66
78123;BME280;67376;44.802;10.332;2023-08-31T10:58:55;100832.97;;;26.10;42.57
78123;BME280;67376;44.802;10.332;2023-08-31T11:04:08;100828.34;;;26.11;43.01
78123;BME280;67376;44.802;10.332;2023-08-31T11:06:34;100825.59;;;26.11;42.67
78123;BME280;67376;44.802;10.332;2023-08-31T11:09:00;100826.41;;;26.11;42.69
78123;BME280;67376;44.802;10.332;2023-08-31T11:11:25;100819.03;;;26.12;42.68
78123;BME280;67376;44.802;10.332;2023-08-31T11:13:56;100812.72;;;26.11;43.01
78123;BME280;67376;44.802;10.332;2023-08-31T11:16:21;100815.47;;;26.11;43.01
78123;BME280;67376;44.802;10.332;2023-08-31T11:18:46;100814.66;;;26.11;42.37
78123;BME280;67376;44.802;10.332;2023-08-31T11:21:11;100815.47;;;26.11;42.37
78123;BME280;67376;44.802;10.332;2023-08-31T11:23:38;100814.09;;;26.14;42.58
78123;BME280;67376;44.802;10.332;2023-08-31T11:26:03;100815.19;;;26.13;42.38
78123;BME280;67376;44.802;10.332;2023-08-31T11:28:32;100808.91;;;26.12;42.54
78123;BME280;67376;44.802;10.332;2023-08-31T11:30:58;100809.19;;;26.11;42.94
78123;BME280;67376;44.802;10.332;2023-08-31T11:33:23;100817.13;;;26.12;42.60
78123;BME280;67376;44.802;10.332;2023-08-31T11:35:48;100808.91;;;26.12;42.91
78123;BME280;67376;44.802;10.332;2023-08-31T11:38:14;100808.63;;;26.14;42.95
78123;BME280;67376;44.802;10.332;2023-08-31T11:40:39;100807.53;;;26.15;42.66
78123;BME280;67376;44.802;10.332;2023-08-31T11:43:04;100797.69;;;26.14;42.89
78123;BME280;67376;44.802;10.332;2023-08-31T11:45:31;100792.47;;;26.12;42.85
78123;BME280;67376;44.802;10.332;2023-08-31T11:47:57;100797.97;;;26.12;42.78
78123;BME280;67376;44.802;10.332;2023-08-31T11:50:23;100799.59;;;26.13;42.64
78123;BME280;67376;44.802;10.332;2023-08-31T11:52:48;100797.97;;;26.12;42.45
78123;BME280;67376;44.802;10.332;2023-08-31T11:55:14;100813.56;;;26.12;42.69
78123;BME280;67376;44.802;10.332;2023-08-31T11:57:40;100808.91;;;26.12;42.65
78123;BME280;67376;44.802;10.332;2023-08-31T12:00:05;100812.47;;;26.13;43.01
78123;BME280;67376;44.802;10.332;2023-08-31T12:02:36;100808.91;;;26.12;42.46
78123;BME280;67376;44.802;10.332;2023-08-31T12:05:02;100812.19;;;26.14;43.09
78123;BME280;67376;44.802;10.332;2023-08-31T12:07:27;100817.66;;;26.14;42.54
78123;BME280;67376;44.802;10.332;2023-08-31T12:09:52;100819.56;;;26.14;42.52
78123;BME280;67376;44.802;10.332;2023-08-31T12:12:20;100824.78;;;26.15;42.93
78123;BME280;67376;44.802;10.332;2023-08-31T12:14:46;100822.03;;;26.15;42.61
78123;BME280;67376;44.802;10.332;2023-08-31T12:17:11;100826.69;;;26.15;42.23
78123;BME280;67376;44.802;10.332;2023-08-31T12:19:37;100823.13;;;26.14;42.67
78123;BME280;67376;44.802;10.332;2023-08-31T12:22:04;100829.44;;;26.15;42.62
78123;BME280;67376;44.802;10.332;2023-08-31T12:24:29;100828.34;;;26.16;42.21
78123;BME280;67376;44.802;10.332;2023-08-31T12:26:55;100841.19;;;26.15;42.52
78123;BME280;67376;44.802;10.332;2023-08-31T12:29:20;100828.59;;;26.14;42.27
78123;BME280;67376;44.802;10.332;2023-08-31T12:31:46;100828.59;;;26.14;42.24
78123;BME280;67376;44.802;10.332;2023-08-31T12:34:11;100829.16;;;26.16;42.18
78123;BME280;67376;44.802;10.332;2023-08-31T12:36:36;100818.47;;;26.15;42.45
78123;BME280;67376;44.802;10.332;2023-08-31T12:39:03;100820.13;;;26.16;42.84
78123;BME280;67376;44.802;10.332;2023-08-31T12:41:31;100817.38;;;26.16;42.39
78123;BME280;67376;44.802;10.332;2023-08-31T12:43:57;100815.47;;;26.16;42.23
78123;BME280;67376;44.802;10.332;2023-08-31T12:46:22;100814.38;;;26.17;42.85
78123;BME280;67376;44.802;10.332;2023-08-31T12:48:48;100814.38;;;26.17;42.25
78123;BME280;67376;44.802;10.332;2023-08-31T12:51:14;100814.38;;;26.17;43.00
78123;BME280;67376;44.802;10.332;2023-08-31T12:53:39;100807.81;;;26.18;43.14